메인 페이지
METAR-TAF:

METAR-TAF

공항 :

인디라 간디 국제공항

뉴델리, 인도

위도: 28-34N, 경도: 077-07E, 고도: 220m

현재 날씨관측

예보는 18분 전, 20:00시(UTC)에 발표되었습니다.
무풍
온도 13°C
습도 82%
기압 1017 hPa
시정: 1800m
박무

METAR: VIDP 302000Z 00000KT 1800 R28/P2000 R29/P2000 BR NSC 13/10 Q1017 NOSIG

시각: 01:48 (20:18 UTC)

예보

예보는 3 시간 18분 전, 17:00시(UTC)에 발표되었습니다.
예보 대상 시간: 30일 18시부터 01일 24시까지 (UTC)
kt
시정: 1500m
연기, 박무
전환 중
01일 01시부터 01일 03시까지 (UTC)
시정: 1000m
박무
전환 중
01일 04시부터 01일 06시까지 (UTC)
3kt
시정: 1500m
연기
전환 중
01일 08시부터 01일 10시까지 (UTC)
북서6kt
시정: 2500m
연무
전환 중
01일 20시부터 01일 22시까지 (UTC)
kt
시정: 1500m
박무

TAF: VIDP 301700Z 3018/0124 00000KT 1500 FU BR NSC BECMG 0101/0103 1000 BR BECMG 0104/0106 27003KT 1500 FU BECMG 0108/0110 32006KT 2500 HZ BECMG 0120/0122 00000KT 1500 BR

4,000개 이상의 공항 관측 자료 및 예보 (METAR 및 TAF 보고).

지도상에서 검색 가능한 기상관측소가 노란 점과 빨간 점으로 표시되어 있습니다.

기상관측소 명을 보려면 표시 위로 마우스를 이동하세요.

날씨 관측과 예보를 보려면 클릭하세요.

지도 변경 : 확대하려면 엑스 표시가 있는 녹색 버튼, 축소하려면 빼기 표시가 있는 녹색 버튼, 다음 페이지의 지도를 보려면 녹색 화살표를 클릭하세요.


METAR-TAF: